sensor_id;sensor_type;location;lat;lon;timestamp;P1;durP1;ratioP1;P2;durP2;ratioP2
8102;SDS011;4094;49.948;11.574;2022-08-02T00:00:49;3.90;;;3.70;;
8102;SDS011;4094;49.948;11.574;2022-08-02T00:03:23;4.40;;;4.00;;
8102;SDS011;4094;49.948;11.574;2022-08-02T00:05:52;4.50;;;4.10;;
8102;SDS011;4094;49.948;11.574;2022-08-02T00:08:21;5.10;;;4.10;;
8102;SDS011;4094;49.948;11.574;2022-08-02T00:10:50;3.77;;;3.40;;
8102;SDS011;4094;49.948;11.574;2022-08-02T00:13:19;4.03;;;3.77;;
8102;SDS011;4094;49.948;11.574;2022-08-02T00:15:48;3.73;;;3.50;;
8102;SDS011;4094;49.948;11.574;2022-08-02T00:18:17;4.10;;;3.80;;
8102;SDS011;4094;49.948;11.574;2022-08-02T00:20:48;4.03;;;3.63;;
8102;SDS011;4094;49.948;11.574;2022-08-02T00:23:17;3.93;;;3.63;;
8102;SDS011;4094;49.948;11.574;2022-08-02T00:25:46;5.00;;;3.70;;
8102;SDS011;4094;49.948;11.574;2022-08-02T00:28:22;4.57;;;4.27;;
8102;SDS011;4094;49.948;11.574;2022-08-02T00:30:55;4.30;;;4.00;;
8102;SDS011;4094;49.948;11.574;2022-08-02T00:33:24;4.80;;;4.40;;
8102;SDS011;4094;49.948;11.574;2022-08-02T00:36:15;4.70;;;4.30;;
8102;SDS011;4094;49.948;11.574;2022-08-02T00:38:44;4.33;;;4.03;;
8102;SDS011;4094;49.948;11.574;2022-08-02T00:41:15;4.20;;;3.97;;
8102;SDS011;4094;49.948;11.574;2022-08-02T00:43:46;4.30;;;4.00;;
8102;SDS011;4094;49.948;11.574;2022-08-02T00:46:16;4.43;;;4.13;;
8102;SDS011;4094;49.948;11.574;2022-08-02T00:48:47;4.70;;;4.30;;
8102;SDS011;4094;49.948;11.574;2022-08-02T00:51:18;4.37;;;4.07;;
8102;SDS011;4094;49.948;11.574;2022-08-02T00:53:47;4.23;;;3.90;;
8102;SDS011;4094;49.948;11.574;2022-08-02T00:56:16;4.80;;;4.50;;
8102;SDS011;4094;49.948;11.574;2022-08-02T00:58:45;4.83;;;4.40;;
8102;SDS011;4094;49.948;11.574;2022-08-02T01:01:14;5.20;;;4.80;;
8102;SDS011;4094;49.948;11.574;2022-08-02T01:03:43;4.57;;;4.27;;
8102;SDS011;4094;49.948;11.574;2022-08-02T01:06:13;4.63;;;4.33;;
8102;SDS011;4094;49.948;11.574;2022-08-02T01:08:43;4.60;;;4.30;;
8102;SDS011;4094;49.948;11.574;2022-08-02T01:11:12;4.57;;;4.27;;
8102;SDS011;4094;49.948;11.574;2022-08-02T01:13:41;4.63;;;4.33;;
8102;SDS011;4094;49.948;11.574;2022-08-02T01:16:12;4.40;;;4.10;;
8102;SDS011;4094;49.948;11.574;2022-08-02T01:18:46;4.50;;;4.20;;
8102;SDS011;4094;49.948;11.574;2022-08-02T01:21:24;4.70;;;4.30;;
8102;SDS011;4094;49.948;11.574;2022-08-02T01:24:17;4.90;;;4.60;;
8102;SDS011;4094;49.948;11.574;2022-08-02T01:26:59;4.50;;;4.17;;
8102;SDS011;4094;49.948;11.574;2022-08-02T01:29:38;5.90;;;4.80;;
8102;SDS011;4094;49.948;11.574;2022-08-02T01:32:13;5.00;;;4.63;;
8102;SDS011;4094;49.948;11.574;2022-08-02T01:34:46;5.30;;;4.90;;
8102;SDS011;4094;49.948;11.574;2022-08-02T01:37:19;5.20;;;4.70;;
8102;SDS011;4094;49.948;11.574;2022-08-02T01:39:53;4.90;;;4.50;;
8102;SDS011;4094;49.948;11.574;2022-08-02T01:42:28;4.93;;;4.63;;
8102;SDS011;4094;49.948;11.574;2022-08-02T01:45:00;4.67;;;4.37;;
8102;SDS011;4094;49.948;11.574;2022-08-02T01:47:32;4.70;;;4.40;;
8102;SDS011;4094;49.948;11.574;2022-08-02T01:50:06;5.30;;;4.90;;
8102;SDS011;4094;49.948;11.574;2022-08-02T01:52:38;5.30;;;4.77;;
8102;SDS011;4094;49.948;11.574;2022-08-02T01:55:21;5.50;;;5.10;;
8102;SDS011;4094;49.948;11.574;2022-08-02T01:58:11;5.37;;;4.90;;
8102;SDS011;4094;49.948;11.574;2022-08-02T02:00:45;5.00;;;4.70;;
8102;SDS011;4094;49.948;11.574;2022-08-02T02:03:18;4.97;;;4.67;;
8102;SDS011;4094;49.948;11.574;2022-08-02T02:05:49;5.00;;;4.60;;
8102;SDS011;4094;49.948;11.574;2022-08-02T02:08:22;5.00;;;4.50;;
8102;SDS011;4094;49.948;11.574;2022-08-02T02:10:55;5.30;;;4.70;;
8102;SDS011;4094;49.948;11.574;2022-08-02T02:13:44;5.20;;;4.80;;
8102;SDS011;4094;49.948;11.574;2022-08-02T02:16:17;5.20;;;4.80;;
8102;SDS011;4094;49.948;11.574;2022-08-02T02:18:47;5.60;;;5.17;;
8102;SDS011;4094;49.948;11.574;2022-08-02T02:21:17;4.80;;;4.50;;
8102;SDS011;4094;49.948;11.574;2022-08-02T02:23:46;4.80;;;4.50;;
8102;SDS011;4094;49.948;11.574;2022-08-02T02:26:17;6.23;;;4.50;;
8102;SDS011;4094;49.948;11.574;2022-08-02T02:28:58;4.80;;;4.50;;
8102;SDS011;4094;49.948;11.574;2022-08-02T02:31:31;4.80;;;4.40;;
8102;SDS011;4094;49.948;11.574;2022-08-02T02:34:04;4.57;;;4.17;;
8102;SDS011;4094;49.948;11.574;2022-08-02T02:36:38;4.50;;;4.20;;
8102;SDS011;4094;49.948;11.574;2022-08-02T02:39:09;5.17;;;4.67;;
8102;SDS011;4094;49.948;11.574;2022-08-02T02:41:40;5.00;;;4.60;;
8102;SDS011;4094;49.948;11.574;2022-08-02T02:44:13;5.07;;;4.67;;
8102;SDS011;4094;49.948;11.574;2022-08-02T02:46:48;5.13;;;4.60;;
8102;SDS011;4094;49.948;11.574;2022-08-02T02:49:21;4.70;;;4.40;;
8102;SDS011;4094;49.948;11.574;2022-08-02T02:51:52;4.73;;;4.37;;
8102;SDS011;4094;49.948;11.574;2022-08-02T02:54:22;5.10;;;4.50;;
8102;SDS011;4094;49.948;11.574;2022-08-02T02:57:01;4.53;;;4.13;;
8102;SDS011;4094;49.948;11.574;2022-08-02T02:59:33;4.70;;;4.33;;
8102;SDS011;4094;49.948;11.574;2022-08-02T03:02:17;4.73;;;4.43;;
8102;SDS011;4094;49.948;11.574;2022-08-02T03:04:47;4.37;;;4.07;;
8102;SDS011;4094;49.948;11.574;2022-08-02T03:07:24;5.03;;;4.50;;
8102;SDS011;4094;49.948;11.574;2022-08-02T03:09:53;4.80;;;4.50;;
8102;SDS011;4094;49.948;11.574;2022-08-02T03:12:23;5.13;;;4.63;;
8102;SDS011;4094;49.948;11.574;2022-08-02T03:14:58;5.30;;;4.80;;
8102;SDS011;4094;49.948;11.574;2022-08-02T03:17:40;5.10;;;4.63;;
8102;SDS011;4094;49.948;11.574;2022-08-02T03:20:11;5.10;;;4.70;;
8102;SDS011;4094;49.948;11.574;2022-08-02T03:22:41;4.70;;;4.40;;
8102;SDS011;4094;49.948;11.574;2022-08-02T03:25:12;4.97;;;4.57;;
8102;SDS011;4094;49.948;11.574;2022-08-02T03:27:42;5.73;;;4.50;;
8102;SDS011;4094;49.948;11.574;2022-08-02T03:30:12;4.97;;;4.63;;
8102;SDS011;4094;49.948;11.574;2022-08-02T03:32:44;4.97;;;4.67;;
8102;SDS011;4094;49.948;11.574;2022-08-02T03:35:15;5.50;;;5.10;;
8102;SDS011;4094;49.948;11.574;2022-08-02T03:37:51;5.37;;;4.97;;
8102;SDS011;4094;49.948;11.574;2022-08-02T03:40:22;4.90;;;4.60;;
8102;SDS011;4094;49.948;11.574;2022-08-02T03:42:52;4.80;;;4.50;;
8102;SDS011;4094;49.948;11.574;2022-08-02T03:45:22;5.17;;;4.77;;
8102;SDS011;4094;49.948;11.574;2022-08-02T03:47:54;5.10;;;4.80;;
8102;SDS011;4094;49.948;11.574;2022-08-02T03:50:25;5.00;;;4.70;;
8102;SDS011;4094;49.948;11.574;2022-08-02T03:52:55;4.73;;;4.33;;
8102;SDS011;4094;49.948;11.574;2022-08-02T03:55:24;4.70;;;4.33;;
8102;SDS011;4094;49.948;11.574;2022-08-02T03:57:54;5.33;;;4.93;;
8102;SDS011;4094;49.948;11.574;2022-08-02T04:00:24;4.97;;;4.67;;
8102;SDS011;4094;49.948;11.574;2022-08-02T04:02:54;5.30;;;4.90;;
8102;SDS011;4094;49.948;11.574;2022-08-02T04:05:23;5.47;;;5.03;;
8102;SDS011;4094;49.948;11.574;2022-08-02T04:07:53;5.30;;;4.80;;
8102;SDS011;4094;49.948;11.574;2022-08-02T04:10:43;5.23;;;4.70;;
8102;SDS011;4094;49.948;11.574;2022-08-02T04:13:32;4.87;;;4.47;;
8102;SDS011;4094;49.948;11.574;2022-08-02T04:16:05;4.73;;;4.43;;
8102;SDS011;4094;49.948;11.574;2022-08-02T04:18:42;4.87;;;4.47;;
8102;SDS011;4094;49.948;11.574;2022-08-02T04:21:14;5.57;;;5.07;;
8102;SDS011;4094;49.948;11.574;2022-08-02T04:23:45;5.50;;;4.87;;
8102;SDS011;4094;49.948;11.574;2022-08-02T04:26:16;5.27;;;4.87;;
8102;SDS011;4094;49.948;11.574;2022-08-02T04:28:54;5.33;;;4.80;;
8102;SDS011;4094;49.948;11.574;2022-08-02T04:31:25;5.63;;;4.93;;
8102;SDS011;4094;49.948;11.574;2022-08-02T04:33:56;5.33;;;4.93;;
8102;SDS011;4094;49.948;11.574;2022-08-02T04:36:25;5.17;;;4.60;;
8102;SDS011;4094;49.948;11.574;2022-08-02T04:38:58;5.83;;;5.17;;
8102;SDS011;4094;49.948;11.574;2022-08-02T04:41:37;5.60;;;5.00;;
8102;SDS011;4094;49.948;11.574;2022-08-02T04:44:10;5.47;;;5.00;;
8102;SDS011;4094;49.948;11.574;2022-08-02T04:46:40;5.13;;;4.73;;
8102;SDS011;4094;49.948;11.574;2022-08-02T04:49:12;5.80;;;5.30;;
8102;SDS011;4094;49.948;11.574;2022-08-02T04:51:41;5.30;;;4.60;;
8102;SDS011;4094;49.948;11.574;2022-08-02T04:54:11;4.93;;;4.53;;
8102;SDS011;4094;49.948;11.574;2022-08-02T04:56:40;4.70;;;4.40;;
8102;SDS011;4094;49.948;11.574;2022-08-02T04:59:09;5.53;;;5.03;;
8102;SDS011;4094;49.948;11.574;2022-08-02T05:01:38;5.20;;;4.70;;
8102;SDS011;4094;49.948;11.574;2022-08-02T05:04:09;5.47;;;4.50;;
8102;SDS011;4094;49.948;11.574;2022-08-02T05:06:39;4.60;;;4.30;;
8102;SDS011;4094;49.948;11.574;2022-08-02T05:09:08;5.30;;;4.90;;
8102;SDS011;4094;49.948;11.574;2022-08-02T05:11:37;5.57;;;5.00;;
8102;SDS011;4094;49.948;11.574;2022-08-02T05:14:07;5.60;;;5.20;;
8102;SDS011;4094;49.948;11.574;2022-08-02T05:16:36;5.27;;;4.87;;
8102;SDS011;4094;49.948;11.574;2022-08-02T05:19:05;5.47;;;5.07;;
8102;SDS011;4094;49.948;11.574;2022-08-02T05:21:34;5.60;;;5.10;;
8102;SDS011;4094;49.948;11.574;2022-08-02T05:24:06;5.77;;;5.20;;
8102;SDS011;4094;49.948;11.574;2022-08-02T05:26:35;6.30;;;5.70;;
8102;SDS011;4094;49.948;11.574;2022-08-02T05:29:04;7.70;;;5.27;;
8102;SDS011;4094;49.948;11.574;2022-08-02T05:31:33;6.17;;;5.67;;
8102;SDS011;4094;49.948;11.574;2022-08-02T05:34:02;5.83;;;5.43;;
8102;SDS011;4094;49.948;11.574;2022-08-02T05:36:38;5.57;;;5.03;;
8102;SDS011;4094;49.948;11.574;2022-08-02T05:39:09;6.67;;;5.30;;
8102;SDS011;4094;49.948;11.574;2022-08-02T05:41:45;5.93;;;5.43;;
8102;SDS011;4094;49.948;11.574;2022-08-02T05:44:15;5.47;;;5.07;;
8102;SDS011;4094;49.948;11.574;2022-08-02T05:46:44;5.47;;;4.97;;
8102;SDS011;4094;49.948;11.574;2022-08-02T05:49:14;5.77;;;5.37;;
8102;SDS011;4094;49.948;11.574;2022-08-02T05:51:44;6.40;;;4.83;;
8102;SDS011;4094;49.948;11.574;2022-08-02T05:54:26;5.27;;;4.87;;
8102;SDS011;4094;49.948;11.574;2022-08-02T05:57:07;6.90;;;5.40;;
8102;SDS011;4094;49.948;11.574;2022-08-02T05:59:46;5.20;;;4.83;;
8102;SDS011;4094;49.948;11.574;2022-08-02T06:02:23;5.23;;;4.83;;
8102;SDS011;4094;49.948;11.574;2022-08-02T06:04:58;6.50;;;5.63;;
8102;SDS011;4094;49.948;11.574;2022-08-02T06:07:33;5.87;;;5.40;;
8102;SDS011;4094;49.948;11.574;2022-08-02T06:10:06;5.13;;;4.73;;
8102;SDS011;4094;49.948;11.574;2022-08-02T06:12:38;5.43;;;4.90;;
8102;SDS011;4094;49.948;11.574;2022-08-02T06:15:14;5.87;;;5.37;;
8102;SDS011;4094;49.948;11.574;2022-08-02T06:17:44;5.43;;;4.90;;
8102;SDS011;4094;49.948;11.574;2022-08-02T06:20:17;5.67;;;5.20;;
8102;SDS011;4094;49.948;11.574;2022-08-02T06:22:48;5.23;;;4.83;;
8102;SDS011;4094;49.948;11.574;2022-08-02T06:25:19;5.13;;;4.70;;
8102;SDS011;4094;49.948;11.574;2022-08-02T06:28:09;5.60;;;5.17;;
8102;SDS011;4094;49.948;11.574;2022-08-02T06:30:41;6.87;;;5.30;;
8102;SDS011;4094;49.948;11.574;2022-08-02T06:33:11;4.97;;;4.57;;
8102;SDS011;4094;49.948;11.574;2022-08-02T06:35:42;4.87;;;4.30;;
8102;SDS011;4094;49.948;11.574;2022-08-02T06:38:20;4.70;;;4.30;;
8102;SDS011;4094;49.948;11.574;2022-08-02T06:40:54;4.70;;;4.30;;
8102;SDS011;4094;49.948;11.574;2022-08-02T06:43:30;5.93;;;4.93;;
8102;SDS011;4094;49.948;11.574;2022-08-02T06:46:06;6.30;;;4.40;;
8102;SDS011;4094;49.948;11.574;2022-08-02T06:48:55;4.20;;;3.90;;
8102;SDS011;4094;49.948;11.574;2022-08-02T06:51:25;4.53;;;4.00;;
8102;SDS011;4094;49.948;11.574;2022-08-02T06:53:55;5.27;;;4.27;;
8102;SDS011;4094;49.948;11.574;2022-08-02T06:56:25;4.47;;;3.90;;
8102;SDS011;4094;49.948;11.574;2022-08-02T06:58:54;4.17;;;3.87;;
8102;SDS011;4094;49.948;11.574;2022-08-02T07:01:23;4.27;;;3.97;;
8102;SDS011;4094;49.948;11.574;2022-08-02T07:04:05;4.47;;;3.77;;
8102;SDS011;4094;49.948;11.574;2022-08-02T07:06:35;4.03;;;3.63;;
8102;SDS011;4094;49.948;11.574;2022-08-02T07:09:04;4.17;;;3.73;;
8102;SDS011;4094;49.948;11.574;2022-08-02T07:11:50;3.90;;;3.60;;
8102;SDS011;4094;49.948;11.574;2022-08-02T07:14:19;3.80;;;3.50;;
8102;SDS011;4094;49.948;11.574;2022-08-02T07:16:48;3.90;;;3.60;;
8102;SDS011;4094;49.948;11.574;2022-08-02T07:19:17;5.17;;;3.57;;
8102;SDS011;4094;49.948;11.574;2022-08-02T07:21:46;4.50;;;3.20;;
8102;SDS011;4094;49.948;11.574;2022-08-02T07:24:25;8.13;;;3.70;;
8102;SDS011;4094;49.948;11.574;2022-08-02T07:26:57;3.37;;;3.17;;
8102;SDS011;4094;49.948;11.574;2022-08-02T07:29:41;3.03;;;2.83;;
8102;SDS011;4094;49.948;11.574;2022-08-02T07:32:13;2.90;;;2.70;;
8102;SDS011;4094;49.948;11.574;2022-08-02T07:34:45;2.60;;;2.40;;
8102;SDS011;4094;49.948;11.574;2022-08-02T07:37:19;2.90;;;2.70;;
8102;SDS011;4094;49.948;11.574;2022-08-02T07:40:10;2.70;;;2.50;;
8102;SDS011;4094;49.948;11.574;2022-08-02T07:42:49;2.67;;;2.47;;
8102;SDS011;4094;49.948;11.574;2022-08-02T07:45:23;3.23;;;2.50;;
8102;SDS011;4094;49.948;11.574;2022-08-02T07:47:52;2.67;;;2.43;;
8102;SDS011;4094;49.948;11.574;2022-08-02T07:50:22;2.87;;;2.30;;
8102;SDS011;4094;49.948;11.574;2022-08-02T07:52:52;2.77;;;2.20;;
8102;SDS011;4094;49.948;11.574;2022-08-02T07:55:24;2.10;;;2.00;;
8102;SDS011;4094;49.948;11.574;2022-08-02T07:58:08;2.20;;;2.10;;
8102;SDS011;4094;49.948;11.574;2022-08-02T08:00:40;2.10;;;2.00;;
8102;SDS011;4094;49.948;11.574;2022-08-02T08:03:10;2.20;;;2.10;;
8102;SDS011;4094;49.948;11.574;2022-08-02T08:05:40;2.03;;;1.93;;
8102;SDS011;4094;49.948;11.574;2022-08-02T08:08:09;1.90;;;1.80;;
8102;SDS011;4094;49.948;11.574;2022-08-02T08:10:43;2.00;;;1.90;;
8102;SDS011;4094;49.948;11.574;2022-08-02T08:13:14;2.17;;;2.00;;
8102;SDS011;4094;49.948;11.574;2022-08-02T08:15:43;3.53;;;2.20;;
8102;SDS011;4094;49.948;11.574;2022-08-02T08:18:19;2.97;;;2.03;;
8102;SDS011;4094;49.948;11.574;2022-08-02T08:20:48;1.90;;;1.80;;
8102;SDS011;4094;49.948;11.574;2022-08-02T08:23:18;2.17;;;1.97;;
8102;SDS011;4094;49.948;11.574;2022-08-02T08:25:47;1.90;;;1.80;;
8102;SDS011;4094;49.948;11.574;2022-08-02T08:28:17;2.90;;;1.87;;
8102;SDS011;4094;49.948;11.574;2022-08-02T08:30:47;2.53;;;2.00;;
8102;SDS011;4094;49.948;11.574;2022-08-02T08:33:16;2.07;;;1.80;;
8102;SDS011;4094;49.948;11.574;2022-08-02T08:35:45;3.93;;;2.10;;
8102;SDS011;4094;49.948;11.574;2022-08-02T08:38:16;2.60;;;1.90;;
8102;SDS011;4094;49.948;11.574;2022-08-02T08:40:45;2.10;;;1.90;;
8102;SDS011;4094;49.948;11.574;2022-08-02T08:43:18;2.10;;;1.90;;
8102;SDS011;4094;49.948;11.574;2022-08-02T08:45:47;3.50;;;1.90;;
8102;SDS011;4094;49.948;11.574;2022-08-02T08:48:23;2.53;;;2.03;;
8102;SDS011;4094;49.948;11.574;2022-08-02T08:51:00;2.50;;;2.30;;
8102;SDS011;4094;49.948;11.574;2022-08-02T08:53:36;2.20;;;2.00;;
8102;SDS011;4094;49.948;11.574;2022-08-02T08:56:08;2.13;;;1.90;;
8102;SDS011;4094;49.948;11.574;2022-08-02T08:58:44;2.00;;;1.90;;
8102;SDS011;4094;49.948;11.574;2022-08-02T09:01:15;3.03;;;1.87;;
8102;SDS011;4094;49.948;11.574;2022-08-02T09:03:44;2.40;;;2.20;;
8102;SDS011;4094;49.948;11.574;2022-08-02T09:06:13;2.40;;;2.20;;
8102;SDS011;4094;49.948;11.574;2022-08-02T09:08:43;2.33;;;2.13;;
8102;SDS011;4094;49.948;11.574;2022-08-02T09:11:13;2.40;;;2.20;;
8102;SDS011;4094;49.948;11.574;2022-08-02T09:13:49;2.33;;;2.13;;
8102;SDS011;4094;49.948;11.574;2022-08-02T09:16:29;2.30;;;2.10;;
8102;SDS011;4094;49.948;11.574;2022-08-02T09:18:59;2.93;;;1.93;;
8102;SDS011;4094;49.948;11.574;2022-08-02T09:21:34;2.47;;;2.27;;
8102;SDS011;4094;49.948;11.574;2022-08-02T09:24:13;3.03;;;2.27;;
8102;SDS011;4094;49.948;11.574;2022-08-02T09:26:44;2.67;;;2.47;;
8102;SDS011;4094;49.948;11.574;2022-08-02T09:29:16;2.70;;;2.50;;
8102;SDS011;4094;49.948;11.574;2022-08-02T09:31:50;2.60;;;2.40;;
8102;SDS011;4094;49.948;11.574;2022-08-02T09:34:42;4.73;;;2.60;;
8102;SDS011;4094;49.948;11.574;2022-08-02T09:37:25;3.83;;;2.30;;
8102;SDS011;4094;49.948;11.574;2022-08-02T09:39:56;2.77;;;2.57;;
8102;SDS011;4094;49.948;11.574;2022-08-02T09:42:28;2.40;;;2.20;;
8102;SDS011;4094;49.948;11.574;2022-08-02T09:45:00;3.33;;;2.60;;
8102;SDS011;4094;49.948;11.574;2022-08-02T09:47:29;2.57;;;2.37;;
8102;SDS011;4094;49.948;11.574;2022-08-02T09:50:04;2.80;;;2.60;;
8102;SDS011;4094;49.948;11.574;2022-08-02T09:52:38;2.80;;;2.60;;
8102;SDS011;4094;49.948;11.574;2022-08-02T09:55:10;2.60;;;2.40;;
8102;SDS011;4094;49.948;11.574;2022-08-02T09:57:41;2.73;;;2.53;;
8102;SDS011;4094;49.948;11.574;2022-08-02T10:00:18;2.90;;;2.70;;
8102;SDS011;4094;49.948;11.574;2022-08-02T10:03:09;2.10;;;2.00;;
8102;SDS011;4094;49.948;11.574;2022-08-02T10:05:49;2.50;;;2.30;;
8102;SDS011;4094;49.948;11.574;2022-08-02T10:08:28;2.57;;;2.30;;
8102;SDS011;4094;49.948;11.574;2022-08-02T10:10:59;2.60;;;2.40;;
8102;SDS011;4094;49.948;11.574;2022-08-02T10:13:31;2.37;;;2.27;;
8102;SDS011;4094;49.948;11.574;2022-08-02T10:16:05;2.20;;;2.10;;
8102;SDS011;4094;49.948;11.574;2022-08-02T10:18:34;2.47;;;2.27;;
8102;SDS011;4094;49.948;11.574;2022-08-02T10:21:09;3.33;;;2.23;;
8102;SDS011;4094;49.948;11.574;2022-08-02T10:23:42;2.40;;;2.20;;
8102;SDS011;4094;49.948;11.574;2022-08-02T10:26:16;2.37;;;2.17;;
8102;SDS011;4094;49.948;11.574;2022-08-02T10:28:47;2.33;;;2.17;;
8102;SDS011;4094;49.948;11.574;2022-08-02T10:31:19;2.63;;;2.37;;
8102;SDS011;4094;49.948;11.574;2022-08-02T10:33:53;2.30;;;2.10;;
8102;SDS011;4094;49.948;11.574;2022-08-02T10:36:26;2.60;;;2.40;;
8102;SDS011;4094;49.948;11.574;2022-08-02T10:38:59;2.50;;;2.30;;
8102;SDS011;4094;49.948;11.574;2022-08-02T10:41:39;2.83;;;2.50;;
8102;SDS011;4094;49.948;11.574;2022-08-02T10:44:18;2.20;;;2.10;;
8102;SDS011;4094;49.948;11.574;2022-08-02T10:46:54;3.17;;;2.40;;
8102;SDS011;4094;49.948;11.574;2022-08-02T10:49:51;2.20;;;2.00;;
8102;SDS011;4094;49.948;11.574;2022-08-02T10:52:22;2.10;;;2.00;;
8102;SDS011;4094;49.948;11.574;2022-08-02T10:54:56;2.10;;;2.00;;
8102;SDS011;4094;49.948;11.574;2022-08-02T10:57:28;2.40;;;2.20;;
8102;SDS011;4094;49.948;11.574;2022-08-02T11:00:00;2.20;;;2.00;;
8102;SDS011;4094;49.948;11.574;2022-08-02T11:02:40;2.40;;;1.93;;
8102;SDS011;4094;49.948;11.574;2022-08-02T11:05:11;4.27;;;2.10;;
8102;SDS011;4094;49.948;11.574;2022-08-02T11:07:43;6.23;;;2.00;;
8102;SDS011;4094;49.948;11.574;2022-08-02T11:10:35;2.20;;;2.00;;
8102;SDS011;4094;49.948;11.574;2022-08-02T11:13:15;2.20;;;2.00;;
8102;SDS011;4094;49.948;11.574;2022-08-02T11:15:50;1.80;;;1.70;;
8102;SDS011;4094;49.948;11.574;2022-08-02T11:18:25;1.97;;;1.87;;
8102;SDS011;4094;49.948;11.574;2022-08-02T11:21:34;1.97;;;1.80;;
8102;SDS011;4094;49.948;11.574;2022-08-02T11:24:22;1.70;;;1.60;;
8102;SDS011;4094;49.948;11.574;2022-08-02T11:26:55;1.53;;;1.43;;
8102;SDS011;4094;49.948;11.574;2022-08-02T11:29:30;1.90;;;1.70;;
8102;SDS011;4094;49.948;11.574;2022-08-02T11:32:06;1.60;;;1.50;;
8102;SDS011;4094;49.948;11.574;2022-08-02T11:34:38;2.10;;;1.90;;
8102;SDS011;4094;49.948;11.574;2022-08-02T11:37:10;2.73;;;1.63;;
8102;SDS011;4094;49.948;11.574;2022-08-02T11:39:39;1.70;;;1.60;;
8102;SDS011;4094;49.948;11.574;2022-08-02T11:42:17;1.93;;;1.50;;
8102;SDS011;4094;49.948;11.574;2022-08-02T11:44:46;1.70;;;1.60;;
8102;SDS011;4094;49.948;11.574;2022-08-02T11:47:15;1.97;;;1.87;;
8102;SDS011;4094;49.948;11.574;2022-08-02T11:49:47;1.87;;;1.77;;
8102;SDS011;4094;49.948;11.574;2022-08-02T11:52:16;1.93;;;1.83;;
8102;SDS011;4094;49.948;11.574;2022-08-02T11:54:47;1.87;;;1.77;;
8102;SDS011;4094;49.948;11.574;2022-08-02T11:57:17;1.70;;;1.60;;
8102;SDS011;4094;49.948;11.574;2022-08-02T11:59:48;3.03;;;1.63;;
8102;SDS011;4094;49.948;11.574;2022-08-02T12:02:19;2.20;;;1.37;;
8102;SDS011;4094;49.948;11.574;2022-08-02T12:04:54;2.17;;;1.60;;
8102;SDS011;4094;49.948;11.574;2022-08-02T12:07:26;4.57;;;1.70;;
8102;SDS011;4094;49.948;11.574;2022-08-02T12:10:05;2.50;;;1.70;;
8102;SDS011;4094;49.948;11.574;2022-08-02T12:12:47;1.70;;;1.40;;
8102;SDS011;4094;49.948;11.574;2022-08-02T12:15:28;1.60;;;1.50;;
8102;SDS011;4094;49.948;11.574;2022-08-02T12:17:58;1.80;;;1.57;;
8102;SDS011;4094;49.948;11.574;2022-08-02T12:20:47;2.23;;;1.30;;
8102;SDS011;4094;49.948;11.574;2022-08-02T12:23:17;1.50;;;1.40;;
8102;SDS011;4094;49.948;11.574;2022-08-02T12:25:58;1.80;;;1.70;;
8102;SDS011;4094;49.948;11.574;2022-08-02T12:28:31;1.70;;;1.60;;
8102;SDS011;4094;49.948;11.574;2022-08-02T12:31:01;1.97;;;1.60;;
8102;SDS011;4094;49.948;11.574;2022-08-02T12:33:43;1.73;;;1.57;;
8102;SDS011;4094;49.948;11.574;2022-08-02T12:36:15;1.50;;;1.40;;
8102;SDS011;4094;49.948;11.574;2022-08-02T12:38:51;3.33;;;1.57;;
8102;SDS011;4094;49.948;11.574;2022-08-02T12:41:21;1.63;;;1.50;;
8102;SDS011;4094;49.948;11.574;2022-08-02T12:43:59;1.53;;;1.33;;
8102;SDS011;4094;49.948;11.574;2022-08-02T12:46:28;1.90;;;1.30;;
8102;SDS011;4094;49.948;11.574;2022-08-02T12:49:15;1.70;;;1.23;;
8102;SDS011;4094;49.948;11.574;2022-08-02T12:51:47;2.47;;;1.50;;
8102;SDS011;4094;49.948;11.574;2022-08-02T12:54:27;1.20;;;1.10;;
8102;SDS011;4094;49.948;11.574;2022-08-02T12:57:08;1.57;;;1.47;;
8102;SDS011;4094;49.948;11.574;2022-08-02T12:59:39;1.77;;;1.33;;
8102;SDS011;4094;49.948;11.574;2022-08-02T13:02:10;2.43;;;1.30;;
8102;SDS011;4094;49.948;11.574;2022-08-02T13:04:41;1.93;;;1.67;;
8102;SDS011;4094;49.948;11.574;2022-08-02T13:07:18;2.17;;;1.50;;
8102;SDS011;4094;49.948;11.574;2022-08-02T13:09:47;3.57;;;1.43;;
8102;SDS011;4094;49.948;11.574;2022-08-02T13:12:16;3.00;;;1.47;;
8102;SDS011;4094;49.948;11.574;2022-08-02T13:14:46;1.40;;;1.30;;
8102;SDS011;4094;49.948;11.574;2022-08-02T13:17:15;1.33;;;1.20;;
8102;SDS011;4094;49.948;11.574;2022-08-02T13:19:45;1.10;;;1.00;;
8102;SDS011;4094;49.948;11.574;2022-08-02T13:22:21;1.13;;;1.03;;
8102;SDS011;4094;49.948;11.574;2022-08-02T13:24:50;1.40;;;1.30;;
8102;SDS011;4094;49.948;11.574;2022-08-02T13:27:23;1.73;;;1.13;;
8102;SDS011;4094;49.948;11.574;2022-08-02T13:29:55;2.50;;;1.20;;
8102;SDS011;4094;49.948;11.574;2022-08-02T13:32:25;2.07;;;1.13;;
8102;SDS011;4094;49.948;11.574;2022-08-02T13:34:55;2.13;;;1.33;;
8102;SDS011;4094;49.948;11.574;2022-08-02T13:37:27;2.47;;;1.20;;
8102;SDS011;4094;49.948;11.574;2022-08-02T13:39:56;1.20;;;1.00;;
8102;SDS011;4094;49.948;11.574;2022-08-02T13:42:45;1.10;;;1.00;;
8102;SDS011;4094;49.948;11.574;2022-08-02T13:45:14;2.50;;;1.30;;
8102;SDS011;4094;49.948;11.574;2022-08-02T13:47:43;2.43;;;1.47;;
8102;SDS011;4094;49.948;11.574;2022-08-02T13:50:29;2.33;;;1.20;;
8102;SDS011;4094;49.948;11.574;2022-08-02T13:52:59;1.20;;;1.10;;
8102;SDS011;4094;49.948;11.574;2022-08-02T13:55:28;2.30;;;1.10;;
8102;SDS011;4094;49.948;11.574;2022-08-02T13:57:58;4.67;;;1.60;;
8102;SDS011;4094;49.948;11.574;2022-08-02T14:00:27;2.30;;;1.30;;
8102;SDS011;4094;49.948;11.574;2022-08-02T14:03:03;5.77;;;1.83;;
8102;SDS011;4094;49.948;11.574;2022-08-02T14:05:35;2.97;;;1.30;;
8102;SDS011;4094;49.948;11.574;2022-08-02T14:08:17;1.77;;;1.33;;
8102;SDS011;4094;49.948;11.574;2022-08-02T14:10:49;1.53;;;1.30;;
8102;SDS011;4094;49.948;11.574;2022-08-02T14:13:19;1.20;;;1.10;;
8102;SDS011;4094;49.948;11.574;2022-08-02T14:15:48;1.13;;;1.03;;
8102;SDS011;4094;49.948;11.574;2022-08-02T14:18:17;1.90;;;1.20;;
8102;SDS011;4094;49.948;11.574;2022-08-02T14:20:46;1.20;;;1.10;;
8102;SDS011;4094;49.948;11.574;2022-08-02T14:23:17;1.33;;;1.20;;
8102;SDS011;4094;49.948;11.574;2022-08-02T14:26:06;1.30;;;1.20;;
8102;SDS011;4094;49.948;11.574;2022-08-02T14:28:53;2.90;;;1.20;;
8102;SDS011;4094;49.948;11.574;2022-08-02T14:31:22;2.07;;;1.07;;
8102;SDS011;4094;49.948;11.574;2022-08-02T14:33:52;1.50;;;1.00;;
8102;SDS011;4094;49.948;11.574;2022-08-02T14:36:21;1.33;;;1.10;;
8102;SDS011;4094;49.948;11.574;2022-08-02T14:38:55;1.43;;;1.10;;
8102;SDS011;4094;49.948;11.574;2022-08-02T14:41:25;2.00;;;1.20;;
8102;SDS011;4094;49.948;11.574;2022-08-02T14:43:54;1.30;;;1.20;;
8102;SDS011;4094;49.948;11.574;2022-08-02T14:46:32;1.30;;;1.10;;
8102;SDS011;4094;49.948;11.574;2022-08-02T14:49:03;1.57;;;1.20;;
8102;SDS011;4094;49.948;11.574;2022-08-02T14:51:34;1.50;;;1.20;;
8102;SDS011;4094;49.948;11.574;2022-08-02T14:54:06;1.40;;;1.20;;
8102;SDS011;4094;49.948;11.574;2022-08-02T14:56:40;1.37;;;1.20;;
8102;SDS011;4094;49.948;11.574;2022-08-02T14:59:10;1.53;;;1.20;;
8102;SDS011;4094;49.948;11.574;2022-08-02T15:01:39;1.23;;;1.13;;
8102;SDS011;4094;49.948;11.574;2022-08-02T15:04:08;1.77;;;1.10;;
8102;SDS011;4094;49.948;11.574;2022-08-02T15:06:37;2.30;;;1.20;;
8102;SDS011;4094;49.948;11.574;2022-08-02T15:09:08;1.37;;;1.27;;
8102;SDS011;4094;49.948;11.574;2022-08-02T15:11:37;2.57;;;1.27;;
8102;SDS011;4094;49.948;11.574;2022-08-02T15:14:15;1.70;;;1.20;;
8102;SDS011;4094;49.948;11.574;2022-08-02T15:16:51;1.67;;;1.37;;
8102;SDS011;4094;49.948;11.574;2022-08-02T15:19:25;1.30;;;1.20;;
8102;SDS011;4094;49.948;11.574;2022-08-02T15:22:14;1.63;;;1.20;;
8102;SDS011;4094;49.948;11.574;2022-08-02T15:24:47;1.53;;;1.43;;
8102;SDS011;4094;49.948;11.574;2022-08-02T15:27:16;2.30;;;1.10;;
8102;SDS011;4094;49.948;11.574;2022-08-02T15:29:45;2.47;;;1.20;;
8102;SDS011;4094;49.948;11.574;2022-08-02T15:32:15;3.40;;;1.50;;
8102;SDS011;4094;49.948;11.574;2022-08-02T15:34:46;2.43;;;1.30;;
8102;SDS011;4094;49.948;11.574;2022-08-02T15:37:15;1.40;;;1.30;;